createdAt,value
2022-12-31T00:00:51.136Z,9.20
2022-12-31T00:03:19.459Z,9.23
2022-12-31T00:05:49.248Z,9.20
2022-12-31T00:08:17.379Z,9.30
2022-12-31T00:10:45.624Z,9.45
2022-12-31T00:13:14.499Z,9.46
2022-12-31T00:15:43.823Z,9.44
2022-12-31T00:18:12.711Z,9.48
2022-12-31T00:20:42.286Z,9.53
2022-12-31T00:23:12.563Z,9.47
2022-12-31T00:25:40.619Z,9.48
2022-12-31T00:28:08.781Z,9.47
2022-12-31T00:30:36.987Z,9.50
2022-12-31T00:33:05.154Z,9.44
2022-12-31T00:35:34.749Z,9.42
2022-12-31T00:38:02.861Z,9.52
2022-12-31T00:40:32.401Z,9.51
2022-12-31T00:43:00.494Z,9.61
2022-12-31T00:45:28.700Z,9.65
2022-12-31T00:47:56.899Z,9.70
2022-12-31T00:50:24.990Z,9.74
2022-12-31T00:52:53.049Z,9.65
2022-12-31T00:55:22.235Z,9.57
2022-12-31T00:57:51.761Z,9.61
2022-12-31T01:00:20.045Z,9.70
2022-12-31T01:02:48.352Z,9.61
2022-12-31T01:05:16.717Z,9.62
2022-12-31T01:07:44.866Z,9.84
2022-12-31T01:10:13.009Z,9.89
2022-12-31T01:12:41.109Z,10.00
2022-12-31T01:15:11.929Z,9.99
2022-12-31T01:17:40.016Z,9.98
2022-12-31T01:20:09.156Z,9.95
2022-12-31T01:22:37.576Z,10.01
2022-12-31T01:25:06.586Z,10.04
2022-12-31T01:27:35.123Z,10.10
2022-12-31T01:30:03.362Z,10.13
2022-12-31T01:32:33.035Z,10.03
2022-12-31T01:35:01.216Z,10.20
2022-12-31T01:37:29.715Z,10.24
2022-12-31T01:39:57.955Z,10.25
2022-12-31T01:42:26.052Z,10.22
2022-12-31T01:44:56.013Z,10.22
2022-12-31T01:47:37.238Z,10.26
2022-12-31T01:50:11.588Z,10.16
2022-12-31T01:52:42.957Z,10.25
2022-12-31T01:55:22.800Z,10.23
2022-12-31T01:57:56.257Z,10.16
2022-12-31T02:00:24.476Z,10.11
2022-12-31T02:02:54.389Z,10.09
2022-12-31T02:05:27.772Z,10.03
2022-12-31T02:07:56.140Z,9.94
2022-12-31T02:10:24.420Z,10.02
2022-12-31T02:12:53.433Z,10.00
2022-12-31T02:15:30.005Z,9.97
2022-12-31T02:18:10.359Z,10.01
2022-12-31T02:21:02.645Z,10.04
2022-12-31T02:23:55.573Z,9.97
2022-12-31T02:26:51.244Z,9.93
2022-12-31T02:29:58.425Z,10.00
2022-12-31T02:32:37.925Z,9.90
2022-12-31T02:35:12.178Z,9.85
2022-12-31T02:37:43.367Z,9.83
2022-12-31T02:40:15.696Z,9.72
2022-12-31T02:42:43.871Z,9.85
2022-12-31T02:45:15.211Z,9.73
2022-12-31T02:47:59.009Z,9.70
2022-12-31T02:50:37.952Z,9.67
2022-12-31T02:53:23.004Z,9.64
2022-12-31T02:55:56.782Z,9.62
2022-12-31T02:58:48.466Z,9.62
2022-12-31T03:01:38.828Z,9.61
2022-12-31T03:04:22.323Z,9.42
2022-12-31T03:06:51.459Z,9.36
2022-12-31T03:09:19.670Z,9.31
2022-12-31T03:12:05.429Z,9.14
2022-12-31T03:14:33.551Z,9.12
2022-12-31T03:17:01.831Z,9.02
2022-12-31T03:19:48.897Z,8.88
2022-12-31T03:22:29.057Z,8.94
2022-12-31T03:25:17.272Z,8.93
2022-12-31T03:27:45.697Z,8.69
2022-12-31T03:30:15.419Z,8.36
2022-12-31T03:32:44.746Z,7.99
2022-12-31T03:35:15.656Z,7.76
2022-12-31T03:37:44.527Z,7.65
2022-12-31T03:40:15.472Z,7.56
2022-12-31T03:42:43.733Z,7.62
2022-12-31T03:45:13.268Z,7.55
2022-12-31T03:47:41.437Z,7.49
2022-12-31T03:50:11.596Z,7.49
2022-12-31T03:52:41.365Z,7.50
2022-12-31T03:55:10.846Z,7.38
2022-12-31T03:57:39.751Z,7.39
2022-12-31T04:00:10.477Z,7.32
2022-12-31T04:02:38.717Z,7.47
2022-12-31T04:05:08.467Z,7.58
2022-12-31T04:07:36.928Z,7.50
2022-12-31T04:10:08.397Z,7.54
2022-12-31T04:12:36.569Z,7.49
2022-12-31T04:15:05.402Z,7.33
2022-12-31T04:17:33.872Z,7.23
2022-12-31T04:20:01.991Z,7.20
2022-12-31T04:22:30.092Z,7.21
2022-12-31T04:24:58.205Z,7.23
2022-12-31T04:27:27.852Z,7.34
2022-12-31T04:29:56.017Z,7.27
2022-12-31T04:32:24.190Z,6.98
2022-12-31T04:34:52.337Z,6.99
2022-12-31T04:37:20.479Z,6.82
2022-12-31T04:39:48.556Z,6.70
2022-12-31T04:42:16.642Z,6.58
2022-12-31T04:44:46.241Z,6.45
2022-12-31T04:47:18.692Z,6.42
2022-12-31T04:49:49.930Z,6.37
2022-12-31T04:52:18.126Z,6.36
2022-12-31T04:54:46.264Z,6.41
2022-12-31T04:57:14.391Z,6.50
2022-12-31T04:59:42.521Z,6.49
2022-12-31T05:02:12.109Z,6.52
2022-12-31T05:04:41.519Z,6.68
2022-12-31T05:07:09.660Z,6.67
2022-12-31T05:09:37.768Z,6.79
2022-12-31T05:12:06.398Z,6.77
2022-12-31T05:14:34.639Z,6.74
2022-12-31T05:17:02.797Z,6.78
2022-12-31T05:19:32.380Z,6.99
2022-12-31T05:22:18.004Z,6.93
2022-12-31T05:24:46.187Z,6.82
2022-12-31T05:27:14.316Z,6.88
2022-12-31T05:29:42.432Z,6.83
2022-12-31T05:32:10.512Z,6.94
2022-12-31T05:34:40.384Z,6.91
2022-12-31T05:37:08.443Z,7.02
2022-12-31T05:39:36.655Z,6.99
2022-12-31T05:42:04.988Z,6.95
2022-12-31T05:44:33.255Z,6.78
2022-12-31T05:47:01.328Z,6.73
2022-12-31T05:49:29.465Z,6.79
2022-12-31T05:51:59.193Z,6.82
2022-12-31T05:54:27.375Z,6.72
2022-12-31T05:56:55.555Z,6.77
2022-12-31T05:59:23.696Z,6.83
2022-12-31T06:01:52.175Z,6.98
2022-12-31T06:04:20.396Z,7.07
2022-12-31T06:06:48.539Z,7.17
2022-12-31T06:09:19.054Z,7.30
2022-12-31T06:11:47.171Z,7.33
2022-12-31T06:14:15.943Z,7.38
2022-12-31T06:16:44.368Z,7.46
2022-12-31T06:19:12.534Z,7.56
2022-12-31T06:21:40.634Z,7.65
2022-12-31T06:24:09.301Z,7.71
2022-12-31T06:26:38.876Z,7.91
2022-12-31T06:29:07.085Z,7.94
2022-12-31T06:31:35.221Z,7.95
2022-12-31T06:34:03.495Z,8.00
2022-12-31T06:36:31.707Z,8.15
2022-12-31T06:38:59.847Z,8.29
2022-12-31T06:41:27.907Z,8.48
2022-12-31T06:43:57.369Z,8.49
2022-12-31T06:46:25.643Z,8.64
2022-12-31T06:48:53.900Z,8.72
2022-12-31T06:51:23.283Z,8.73
2022-12-31T06:53:52.795Z,8.73
2022-12-31T06:56:26.511Z,8.82
2022-12-31T06:58:59.805Z,8.91
2022-12-31T07:01:45.182Z,8.90
2022-12-31T07:04:46.112Z,8.90
2022-12-31T07:07:19.510Z,8.95
2022-12-31T07:09:57.183Z,8.92
2022-12-31T07:12:40.461Z,8.92
2022-12-31T07:15:15.793Z,8.92
2022-12-31T07:17:54.135Z,8.92
2022-12-31T07:20:23.116Z,8.95
2022-12-31T07:22:51.799Z,9.01
2022-12-31T07:25:22.072Z,9.07
2022-12-31T07:28:04.857Z,9.10
2022-12-31T07:30:41.942Z,9.14
2022-12-31T07:33:26.893Z,9.26
2022-12-31T07:36:05.634Z,9.32
2022-12-31T07:38:42.287Z,9.45
2022-12-31T07:41:19.055Z,9.60
2022-12-31T07:43:57.571Z,9.82
2022-12-31T07:46:36.923Z,10.20
2022-12-31T07:49:05.619Z,10.58
2022-12-31T07:51:34.346Z,10.77
2022-12-31T07:54:02.521Z,10.85
2022-12-31T07:56:31.725Z,11.16
2022-12-31T07:59:09.337Z,11.25
2022-12-31T08:01:48.609Z,11.39
2022-12-31T08:04:26.328Z,11.48
2022-12-31T08:07:03.876Z,11.59
2022-12-31T08:09:46.631Z,11.68
2022-12-31T08:12:15.732Z,11.75
2022-12-31T08:14:48.352Z,11.81
2022-12-31T08:17:20.425Z,11.83
2022-12-31T08:19:49.217Z,11.81
2022-12-31T08:22:36.082Z,11.78
2022-12-31T08:25:17.884Z,11.69
2022-12-31T08:27:57.047Z,11.56
2022-12-31T08:30:37.895Z,11.51
2022-12-31T08:33:15.742Z,11.50
2022-12-31T08:36:01.241Z,11.55
2022-12-31T08:38:35.624Z,11.66
2022-12-31T08:41:14.786Z,11.81
2022-12-31T08:43:50.938Z,11.89
2022-12-31T08:46:26.113Z,12.02
2022-12-31T08:48:56.119Z,12.25
2022-12-31T08:51:26.706Z,12.35
2022-12-31T08:53:56.292Z,12.49
2022-12-31T08:56:29.850Z,12.60
2022-12-31T08:59:13.788Z,12.66
2022-12-31T09:01:58.540Z,12.70
2022-12-31T09:04:40.970Z,12.74
2022-12-31T09:07:09.814Z,12.87
2022-12-31T09:09:48.753Z,13.00
2022-12-31T09:12:26.742Z,13.16
2022-12-31T09:15:02.040Z,13.21
2022-12-31T09:17:46.917Z,13.30
2022-12-31T09:20:22.297Z,13.28
2022-12-31T09:22:50.978Z,13.27
2022-12-31T09:25:21.946Z,13.31
2022-12-31T09:28:06.849Z,13.28
2022-12-31T09:30:43.490Z,13.25
2022-12-31T09:33:17.870Z,13.41
2022-12-31T09:35:54.521Z,13.50
2022-12-31T09:38:29.293Z,13.43
2022-12-31T09:41:29.455Z,13.44
2022-12-31T09:44:36.181Z,13.50
2022-12-31T09:47:43.286Z,13.67
2022-12-31T09:50:42.391Z,13.76
2022-12-31T09:53:48.110Z,13.74
2022-12-31T09:56:24.225Z,13.83
2022-12-31T09:59:01.965Z,13.80
2022-12-31T10:01:44.811Z,13.89
2022-12-31T10:04:39.843Z,13.96
2022-12-31T10:07:24.814Z,14.08
2022-12-31T10:10:14.597Z,14.15
2022-12-31T10:12:56.314Z,14.14
2022-12-31T10:16:06.773Z,14.28
2022-12-31T10:18:50.562Z,14.32
2022-12-31T10:21:33.160Z,14.38
2022-12-31T10:24:24.830Z,14.32
2022-12-31T10:27:18.342Z,14.40
2022-12-31T10:29:48.969Z,14.41
2022-12-31T10:32:26.317Z,14.31
2022-12-31T10:35:11.257Z,14.32
2022-12-31T10:37:49.545Z,14.46
2022-12-31T10:40:31.185Z,14.44
2022-12-31T10:43:48.047Z,14.34
2022-12-31T10:46:52.821Z,14.44
2022-12-31T10:49:58.802Z,14.48
2022-12-31T10:53:18.208Z,14.48
2022-12-31T10:56:09.824Z,14.41
2022-12-31T10:59:03.276Z,14.41
2022-12-31T11:01:43.581Z,14.63
2022-12-31T11:04:59.861Z,14.55
2022-12-31T11:07:40.709Z,14.52
2022-12-31T11:10:50.506Z,14.49
2022-12-31T11:14:03.365Z,14.53
2022-12-31T11:17:02.419Z,14.51
2022-12-31T11:19:38.499Z,14.48
2022-12-31T11:22:23.416Z,14.41
2022-12-31T11:25:21.619Z,14.42
2022-12-31T11:28:07.974Z,14.47
2022-12-31T11:30:47.730Z,14.43
2022-12-31T11:33:33.434Z,14.44
2022-12-31T11:36:15.237Z,14.51
2022-12-31T11:38:52.506Z,14.50
2022-12-31T11:41:30.094Z,14.53
2022-12-31T11:44:19.378Z,14.46
2022-12-31T11:47:08.899Z,14.48
2022-12-31T11:50:04.659Z,14.39
2022-12-31T11:52:56.118Z,14.51
2022-12-31T11:55:34.151Z,14.40
2022-12-31T11:58:14.743Z,14.44
2022-12-31T12:00:50.796Z,14.40
2022-12-31T12:03:18.928Z,14.39
2022-12-31T12:05:47.056Z,14.44
2022-12-31T12:08:15.960Z,14.47
2022-12-31T12:10:47.623Z,14.53
2022-12-31T12:13:23.834Z,14.42
2022-12-31T12:15:54.249Z,14.19
2022-12-31T12:18:31.670Z,14.00
2022-12-31T12:21:09.573Z,13.82
2022-12-31T12:23:37.904Z,13.75
2022-12-31T12:26:06.952Z,13.69
2022-12-31T12:28:46.837Z,13.45
2022-12-31T12:31:21.988Z,13.24
2022-12-31T12:33:52.208Z,13.18
2022-12-31T12:36:21.797Z,13.15
2022-12-31T12:39:01.096Z,12.92
2022-12-31T12:41:29.224Z,12.86
2022-12-31T12:44:07.331Z,12.81
2022-12-31T12:46:44.658Z,12.69
2022-12-31T12:49:23.884Z,12.59
2022-12-31T12:52:10.367Z,12.57
2022-12-31T12:54:56.002Z,12.50
2022-12-31T12:57:30.764Z,12.47
2022-12-31T13:00:19.059Z,12.41
2022-12-31T13:03:11.361Z,12.36
2022-12-31T13:05:59.559Z,12.29
2022-12-31T13:08:38.969Z,12.14
2022-12-31T13:11:21.891Z,11.98
2022-12-31T13:14:07.836Z,11.94
2022-12-31T13:16:44.255Z,11.84
2022-12-31T13:19:18.318Z,11.60
2022-12-31T13:21:57.045Z,11.24
2022-12-31T13:24:40.942Z,11.14
2022-12-31T13:27:15.477Z,11.08
2022-12-31T13:29:46.352Z,10.82
2022-12-31T13:32:20.610Z,10.80
2022-12-31T13:34:53.110Z,10.73
2022-12-31T13:37:28.787Z,10.64
2022-12-31T13:40:03.031Z,10.44
2022-12-31T13:42:40.595Z,10.37
2022-12-31T13:45:15.115Z,10.37
2022-12-31T13:47:49.695Z,10.31
2022-12-31T13:50:23.649Z,10.26
2022-12-31T13:52:58.377Z,10.07
2022-12-31T13:55:31.411Z,9.92
2022-12-31T13:58:06.436Z,9.91
2022-12-31T14:00:39.890Z,9.85
2022-12-31T14:03:15.304Z,9.70
2022-12-31T14:05:54.557Z,9.61
2022-12-31T14:08:22.815Z,9.47
2022-12-31T14:11:02.669Z,9.45
2022-12-31T14:13:42.736Z,9.38
2022-12-31T14:16:20.739Z,9.21
2022-12-31T14:19:00.928Z,9.14
2022-12-31T14:21:33.236Z,9.04
2022-12-31T14:24:11.351Z,8.90
2022-12-31T14:26:44.280Z,8.82
2022-12-31T14:29:33.254Z,8.65
2022-12-31T14:32:31.393Z,8.51
2022-12-31T14:35:18.163Z,8.39
2022-12-31T14:37:52.719Z,8.38
2022-12-31T14:40:28.094Z,8.30
2022-12-31T14:43:08.602Z,8.30
2022-12-31T14:45:48.390Z,8.37
2022-12-31T14:48:27.121Z,8.28
2022-12-31T14:50:57.245Z,8.11
2022-12-31T14:53:27.161Z,8.20
2022-12-31T14:56:01.091Z,8.21
2022-12-31T14:58:34.880Z,8.19
2022-12-31T15:01:08.866Z,8.16
2022-12-31T15:03:45.382Z,8.15
2022-12-31T15:06:39.838Z,7.93
2022-12-31T15:09:19.145Z,7.87
2022-12-31T15:12:05.441Z,7.83
2022-12-31T15:15:01.012Z,7.76
2022-12-31T15:17:41.656Z,7.69
2022-12-31T15:20:48.110Z,7.69
2022-12-31T15:23:22.966Z,7.67
2022-12-31T15:25:55.685Z,7.61
2022-12-31T15:28:33.395Z,7.57
2022-12-31T15:31:14.412Z,7.61
2022-12-31T15:33:56.741Z,7.61
2022-12-31T15:36:26.965Z,7.74
2022-12-31T15:42:35.616Z,7.75
2022-12-31T15:44:49.827Z,7.73
2022-12-31T15:47:25.271Z,7.75
2022-12-31T15:49:55.861Z,7.78
2022-12-31T15:52:31.031Z,7.89
2022-12-31T15:54:59.763Z,7.70
2022-12-31T15:57:35.149Z,7.56
2022-12-31T16:00:07.983Z,7.62
2022-12-31T16:02:39.187Z,7.67
2022-12-31T16:05:08.110Z,7.60
2022-12-31T16:07:36.502Z,7.65
2022-12-31T16:10:06.816Z,7.56
2022-12-31T16:12:44.432Z,7.44
2022-12-31T16:15:23.102Z,7.39
2022-12-31T16:18:01.565Z,7.47
2022-12-31T16:20:32.907Z,7.43
2022-12-31T16:23:03.132Z,7.49
2022-12-31T16:25:34.031Z,7.51
2022-12-31T16:28:04.958Z,7.53
2022-12-31T16:30:35.934Z,7.52
2022-12-31T16:33:06.718Z,7.43
2022-12-31T16:35:37.557Z,7.46
2022-12-31T16:38:14.070Z,7.25
2022-12-31T16:40:43.938Z,7.45
2022-12-31T16:43:29.004Z,7.58
2022-12-31T16:45:59.331Z,7.56
2022-12-31T16:48:27.952Z,7.60
2022-12-31T16:50:57.499Z,7.55
2022-12-31T16:53:29.921Z,7.55
2022-12-31T16:56:02.857Z,7.63
2022-12-31T16:58:34.711Z,7.68
2022-12-31T17:01:15.445Z,7.79
2022-12-31T17:03:46.943Z,7.70
2022-12-31T17:06:17.731Z,7.65
2022-12-31T17:08:49.646Z,7.61
2022-12-31T17:11:29.945Z,7.37
2022-12-31T17:14:07.820Z,7.40
2022-12-31T17:16:38.034Z,7.56
2022-12-31T17:19:06.422Z,7.71
2022-12-31T17:21:34.832Z,7.78
2022-12-31T17:24:07.101Z,7.84
2022-12-31T17:26:38.635Z,8.05
2022-12-31T17:29:08.183Z,8.08
2022-12-31T17:31:38.283Z,7.98
2022-12-31T17:34:24.823Z,8.02
2022-12-31T17:37:00.137Z,8.01
2022-12-31T17:39:40.059Z,8.13
2022-12-31T17:42:10.993Z,8.03
2022-12-31T17:44:43.666Z,7.77
2022-12-31T17:47:15.083Z,7.59
2022-12-31T17:49:47.105Z,7.43
2022-12-31T17:52:16.710Z,7.32
2022-12-31T17:54:44.866Z,7.21
2022-12-31T17:57:27.608Z,7.20
2022-12-31T17:59:57.800Z,7.13
2022-12-31T18:02:26.122Z,7.07
2022-12-31T18:04:54.326Z,6.94
2022-12-31T18:07:22.593Z,6.90
2022-12-31T18:09:50.722Z,6.88
2022-12-31T18:12:20.345Z,6.80
2022-12-31T18:14:48.496Z,6.76
2022-12-31T18:17:18.099Z,6.77
2022-12-31T18:20:04.151Z,6.90
2022-12-31T18:22:33.408Z,6.97
2022-12-31T18:25:01.852Z,6.79
2022-12-31T18:27:30.784Z,6.65
2022-12-31T18:30:04.546Z,6.63
2022-12-31T18:32:35.504Z,6.64
2022-12-31T18:35:03.653Z,6.60
2022-12-31T18:37:34.130Z,6.65
2022-12-31T18:40:02.286Z,6.74
2022-12-31T18:42:30.721Z,6.77
2022-12-31T18:44:58.843Z,6.73
2022-12-31T18:47:27.006Z,6.61
2022-12-31T18:49:56.534Z,6.58
2022-12-31T18:52:25.178Z,6.44
2022-12-31T18:54:53.356Z,6.29
2022-12-31T18:57:21.553Z,6.21
2022-12-31T18:59:49.739Z,6.26
2022-12-31T19:02:20.592Z,6.30
2022-12-31T19:04:48.879Z,6.44
2022-12-31T19:07:18.411Z,6.43
2022-12-31T19:09:48.311Z,6.44
2022-12-31T19:12:18.304Z,6.14
2022-12-31T19:14:46.378Z,6.01
2022-12-31T19:17:14.536Z,6.03
2022-12-31T19:19:42.666Z,6.10
2022-12-31T19:22:16.298Z,6.05
2022-12-31T19:24:46.142Z,6.21
2022-12-31T19:27:14.919Z,6.61
2022-12-31T19:29:43.092Z,6.97
2022-12-31T19:32:11.418Z,7.19
2022-12-31T19:34:39.593Z,7.28
2022-12-31T19:37:07.757Z,7.36
2022-12-31T19:39:35.832Z,7.46
2022-12-31T19:42:05.821Z,7.64
2022-12-31T19:44:34.030Z,7.31
2022-12-31T19:47:02.156Z,7.06
2022-12-31T19:49:30.331Z,6.77
2022-12-31T19:51:58.497Z,6.44
2022-12-31T19:54:26.645Z,6.28
2022-12-31T19:56:54.800Z,6.27
2022-12-31T19:59:24.314Z,6.36
2022-12-31T20:01:53.417Z,6.36
2022-12-31T20:04:21.839Z,6.53
2022-12-31T20:06:50.034Z,7.04
2022-12-31T20:09:18.278Z,7.38
2022-12-31T20:11:46.648Z,7.45
2022-12-31T20:14:14.797Z,7.50
2022-12-31T20:16:44.463Z,7.44
2022-12-31T20:19:12.739Z,7.63
2022-12-31T20:21:42.009Z,7.71
2022-12-31T20:24:10.182Z,7.71
2022-12-31T20:26:38.852Z,7.71
2022-12-31T20:29:06.969Z,7.75
2022-12-31T20:31:35.075Z,7.83
2022-12-31T20:34:06.052Z,7.93
2022-12-31T20:36:34.175Z,7.89
2022-12-31T20:39:02.333Z,7.83
2022-12-31T20:41:32.226Z,7.84
2022-12-31T20:44:00.459Z,7.86
2022-12-31T20:46:31.157Z,7.75
2022-12-31T20:49:01.245Z,7.67
2022-12-31T20:51:32.708Z,7.73
2022-12-31T20:54:02.726Z,7.79
2022-12-31T20:56:33.218Z,7.88
2022-12-31T20:59:02.161Z,7.81
2022-12-31T21:01:55.180Z,7.78
2022-12-31T21:04:19.106Z,7.60
2022-12-31T21:06:49.263Z,7.54
2022-12-31T21:09:17.374Z,7.48
2022-12-31T21:12:02.841Z,7.37
2022-12-31T21:14:30.940Z,7.35
2022-12-31T21:16:59.062Z,7.29
2022-12-31T21:19:27.160Z,7.23
2022-12-31T21:21:56.670Z,7.28
2022-12-31T21:24:24.787Z,7.27
2022-12-31T21:26:55.782Z,7.27
2022-12-31T21:29:24.456Z,7.29
2022-12-31T21:31:52.582Z,7.24
2022-12-31T21:34:20.709Z,7.20
2022-12-31T21:36:48.860Z,7.15
2022-12-31T21:39:18.403Z,7.19
2022-12-31T21:41:52.325Z,7.14
2022-12-31T21:44:21.486Z,7.06
2022-12-31T21:47:25.106Z,7.08
2022-12-31T21:49:38.142Z,7.02
2022-12-31T21:52:23.938Z,6.95
2022-12-31T21:55:10.980Z,6.89
2022-12-31T21:58:07.191Z,6.97
2022-12-31T22:00:53.306Z,6.97
2022-12-31T22:03:28.531Z,6.87
2022-12-31T22:06:00.049Z,6.90
2022-12-31T22:08:29.562Z,6.94
2022-12-31T22:10:59.340Z,6.94
2022-12-31T22:13:27.645Z,6.94
2022-12-31T22:16:04.234Z,6.85
2022-12-31T22:18:35.135Z,6.82
2022-12-31T22:21:05.321Z,6.79
2022-12-31T22:23:34.447Z,6.76
2022-12-31T22:26:05.238Z,6.67
2022-12-31T22:28:38.826Z,6.71
2022-12-31T22:31:08.294Z,6.77
2022-12-31T22:33:36.648Z,6.87
2022-12-31T22:36:07.095Z,6.91
2022-12-31T22:38:35.957Z,6.98
2022-12-31T22:41:08.114Z,7.25
2022-12-31T22:43:38.931Z,7.68
2022-12-31T22:46:08.786Z,7.80
2022-12-31T22:48:37.220Z,7.87
2022-12-31T22:51:05.682Z,7.79
2022-12-31T22:53:34.287Z,7.60
2022-12-31T22:56:02.455Z,7.52
2022-12-31T22:58:31.959Z,7.58
2022-12-31T23:01:00.156Z,7.57
2022-12-31T23:03:28.487Z,7.63
2022-12-31T23:05:56.611Z,7.60
2022-12-31T23:08:24.728Z,7.73
2022-12-31T23:10:59.943Z,7.69
2022-12-31T23:13:50.529Z,7.72
2022-12-31T23:16:38.696Z,7.89
2022-12-31T23:19:24.686Z,8.09
2022-12-31T23:22:11.234Z,8.09
2022-12-31T23:24:43.081Z,8.30
2022-12-31T23:27:12.110Z,8.38
2022-12-31T23:29:46.756Z,8.41
2022-12-31T23:32:17.994Z,8.50
2022-12-31T23:34:47.649Z,8.42
2022-12-31T23:37:15.937Z,8.44
2022-12-31T23:39:44.269Z,8.58
2022-12-31T23:42:12.782Z,8.59
2022-12-31T23:44:40.926Z,8.71
2022-12-31T23:47:09.246Z,8.82
2022-12-31T23:49:38.851Z,8.80
2022-12-31T23:52:07.116Z,8.91
2022-12-31T23:54:36.114Z,9.01
2022-12-31T23:57:04.244Z,8.94
2022-12-31T23:59:32.464Z,8.95
